createdAt,value
2023-03-14T00:01:22.622Z,1.13
2023-03-14T00:03:50.967Z,1.95
2023-03-14T00:06:19.725Z,1.15
2023-03-14T00:08:48.689Z,1.63
2023-03-14T00:11:19.252Z,1.42
2023-03-14T00:13:53.320Z,0.80
2023-03-14T00:16:21.999Z,1.05
2023-03-14T00:18:49.755Z,1.42
2023-03-14T00:21:17.356Z,1.17
2023-03-14T00:23:45.143Z,1.45
2023-03-14T00:26:15.419Z,1.23
2023-03-14T00:28:44.396Z,1.25
2023-03-14T00:31:15.961Z,0.98
2023-03-14T00:33:44.744Z,1.00
2023-03-14T00:36:17.495Z,1.75
2023-03-14T00:38:48.110Z,0.55
2023-03-14T00:41:23.298Z,0.43
2023-03-14T00:43:51.648Z,0.60
2023-03-14T00:46:19.382Z,0.57
2023-03-14T00:48:47.367Z,0.52
2023-03-14T00:51:16.304Z,1.35
2023-03-14T00:53:45.360Z,0.55
2023-03-14T00:56:16.311Z,0.60
2023-03-14T00:58:44.106Z,1.02
2023-03-14T01:01:20.449Z,0.40
2023-03-14T01:03:52.113Z,0.40
2023-03-14T01:06:25.328Z,0.43
2023-03-14T01:08:53.599Z,1.13
2023-03-14T01:11:30.292Z,0.73
2023-03-14T01:13:59.600Z,0.68
2023-03-14T01:16:32.507Z,1.25
2023-03-14T01:19:03.184Z,0.40
2023-03-14T01:21:34.083Z,0.90
2023-03-14T01:24:03.571Z,1.63
2023-03-14T01:26:33.615Z,1.60
2023-03-14T01:29:02.667Z,1.02
2023-03-14T01:31:30.721Z,0.50
2023-03-14T01:33:58.430Z,0.52
2023-03-14T01:36:25.972Z,0.30
2023-03-14T01:38:53.779Z,0.38
2023-03-14T01:41:24.944Z,0.75
2023-03-14T01:43:54.567Z,0.60
2023-03-14T01:46:30.344Z,0.75
2023-03-14T01:49:29.171Z,0.50
2023-03-14T01:52:42.969Z,0.50
2023-03-14T01:55:15.096Z,0.70
2023-03-14T01:57:51.602Z,0.40
2023-03-14T02:00:24.072Z,0.80
2023-03-14T02:03:07.895Z,0.28
2023-03-14T02:05:39.084Z,0.40
2023-03-14T02:08:20.565Z,0.40
2023-03-14T02:10:52.140Z,0.80
2023-03-14T02:16:17.538Z,1.10
2023-03-14T02:19:11.133Z,1.13
2023-03-14T02:22:11.560Z,1.00
2023-03-14T02:25:05.715Z,1.20
2023-03-14T02:27:34.613Z,0.93
2023-03-14T02:30:15.029Z,0.93
2023-03-14T02:32:52.991Z,0.80
2023-03-14T02:35:23.986Z,0.50
2023-03-14T02:37:54.600Z,0.60
2023-03-14T02:40:23.847Z,0.82
2023-03-14T02:42:53.358Z,0.70
2023-03-14T02:45:24.179Z,0.50
2023-03-14T02:48:00.847Z,0.60
2023-03-14T02:50:34.397Z,0.70
2023-03-14T02:53:02.900Z,0.70
2023-03-14T02:55:31.070Z,0.75
2023-03-14T02:58:02.423Z,1.20
2023-03-14T03:00:31.634Z,0.90
2023-03-14T03:02:59.603Z,0.82
2023-03-14T03:05:27.327Z,0.95
2023-03-14T03:07:54.897Z,1.17
2023-03-14T03:10:23.614Z,1.10
2023-03-14T03:12:52.530Z,1.25
2023-03-14T03:15:24.693Z,1.13
2023-03-14T03:17:52.981Z,1.45
2023-03-14T03:20:21.709Z,1.30
2023-03-14T03:22:50.858Z,2.58
2023-03-14T03:25:18.670Z,1.13
2023-03-14T03:27:47.412Z,1.00
2023-03-14T03:30:18.906Z,1.00
2023-03-14T03:32:48.012Z,0.97
2023-03-14T03:35:15.749Z,0.55
2023-03-14T03:37:43.378Z,0.65
2023-03-14T03:40:11.754Z,1.10
2023-03-14T03:42:39.520Z,0.75
2023-03-14T03:45:10.421Z,1.73
2023-03-14T03:47:44.305Z,0.98
2023-03-14T03:50:12.871Z,1.00
2023-03-14T03:52:40.411Z,0.90
2023-03-14T03:55:08.702Z,0.80
2023-03-14T03:57:36.261Z,0.70
2023-03-14T04:00:06.742Z,0.68
2023-03-14T04:02:42.046Z,0.90
2023-03-14T04:05:13.872Z,1.00
2023-03-14T04:07:47.752Z,1.15
2023-03-14T04:10:19.587Z,1.05
2023-03-14T04:13:09.844Z,1.70
2023-03-14T04:15:39.665Z,1.10
2023-03-14T04:18:16.376Z,1.30
2023-03-14T04:20:45.429Z,1.27
2023-03-14T04:23:13.603Z,0.98
2023-03-14T04:25:41.156Z,1.00
2023-03-14T04:28:12.656Z,1.05
2023-03-14T04:30:40.240Z,1.35
2023-03-14T04:33:13.725Z,1.20
2023-03-14T04:35:47.759Z,1.23
2023-03-14T04:38:17.522Z,1.02
2023-03-14T04:40:47.192Z,1.23
2023-03-14T04:43:16.456Z,0.88
2023-03-14T04:45:51.632Z,1.13
2023-03-14T04:48:20.142Z,1.35
2023-03-14T04:50:49.059Z,1.60
2023-03-14T04:53:18.670Z,1.30
2023-03-14T04:55:52.489Z,1.33
2023-03-14T04:58:21.987Z,1.58
2023-03-14T05:00:51.018Z,1.00
2023-03-14T05:03:45.584Z,1.67
2023-03-14T05:06:22.822Z,1.05
2023-03-14T05:09:11.003Z,1.20
2023-03-14T05:11:58.975Z,1.33
2023-03-14T05:14:45.276Z,1.15
2023-03-14T05:17:33.341Z,1.48
2023-03-14T05:20:22.683Z,0.85
2023-03-14T05:23:09.194Z,1.25
2023-03-14T05:28:35.339Z,1.10
2023-03-14T05:31:26.038Z,0.98
2023-03-14T05:34:32.442Z,1.33
2023-03-14T05:37:12.600Z,1.10
2023-03-14T05:40:00.169Z,1.15
2023-03-14T05:42:38.398Z,1.00
2023-03-14T05:45:10.314Z,1.10
2023-03-14T05:47:55.994Z,1.38
2023-03-14T05:50:46.842Z,1.10
2023-03-14T05:53:30.427Z,1.77
2023-03-14T05:56:16.976Z,2.60
2023-03-14T05:59:17.198Z,1.80
2023-03-14T06:02:14.422Z,2.38
2023-03-14T06:07:22.110Z,1.92
2023-03-14T06:09:50.323Z,2.33
2023-03-14T06:12:20.239Z,2.50
2023-03-14T06:14:48.154Z,4.07
2023-03-14T06:17:15.938Z,3.17
2023-03-14T06:19:51.729Z,3.13
2023-03-14T06:22:20.648Z,2.92
2023-03-14T06:24:48.943Z,3.03
2023-03-14T06:27:18.523Z,3.65
2023-03-14T06:29:46.415Z,2.60
2023-03-14T06:32:14.114Z,3.15
2023-03-14T06:34:43.079Z,2.90
2023-03-14T06:37:23.592Z,2.20
2023-03-14T06:39:51.161Z,2.05
2023-03-14T06:42:42.005Z,1.95
2023-03-14T06:45:12.659Z,1.88
2023-03-14T06:47:40.989Z,2.20
2023-03-14T06:50:10.911Z,1.75
2023-03-14T06:55:10.507Z,1.52
2023-03-14T06:57:41.643Z,1.90
2023-03-14T07:00:13.768Z,1.85
2023-03-14T07:02:43.543Z,1.70
2023-03-14T07:05:24.919Z,1.30
2023-03-14T07:07:53.033Z,1.70
2023-03-14T07:10:21.269Z,1.95
2023-03-14T07:12:49.119Z,1.88
2023-03-14T07:15:19.315Z,2.05
2023-03-14T07:17:52.007Z,1.80
2023-03-14T07:20:23.263Z,1.83
2023-03-14T07:22:51.923Z,2.13
2023-03-14T07:25:31.099Z,1.80
2023-03-14T07:27:58.888Z,1.38
2023-03-14T07:30:26.783Z,1.80
2023-03-14T07:32:56.531Z,2.05
2023-03-14T07:35:34.912Z,1.67
2023-03-14T07:38:02.933Z,2.15
2023-03-14T07:40:37.372Z,2.10
2023-03-14T07:43:07.055Z,2.42
2023-03-14T07:45:50.852Z,1.95
2023-03-14T07:48:18.992Z,2.78
2023-03-14T07:50:51.185Z,3.05
2023-03-14T07:53:22.827Z,1.95
2023-03-14T07:55:55.451Z,2.25
2023-03-14T07:58:28.495Z,2.20
2023-03-14T08:01:00.066Z,3.13
2023-03-14T08:03:35.637Z,2.45
2023-03-14T08:06:03.529Z,2.00
2023-03-14T08:08:31.194Z,3.13
2023-03-14T08:11:05.025Z,3.13
2023-03-14T08:13:35.305Z,2.75
2023-03-14T08:16:03.934Z,2.20
2023-03-14T08:18:32.090Z,2.78
2023-03-14T08:21:00.291Z,2.50
2023-03-14T08:23:31.269Z,2.83
2023-03-14T08:25:59.064Z,2.92
2023-03-14T08:28:31.553Z,3.03
2023-03-14T08:31:03.000Z,1.60
2023-03-14T08:33:31.616Z,1.98
2023-03-14T08:36:01.895Z,2.30
2023-03-14T08:38:30.456Z,3.05
2023-03-14T08:41:00.350Z,2.53
2023-03-14T08:43:35.493Z,2.50
2023-03-14T08:46:03.861Z,2.92
2023-03-14T08:48:31.643Z,3.35
2023-03-14T08:51:13.771Z,4.00
2023-03-14T08:53:42.134Z,4.72
2023-03-14T08:56:11.231Z,2.33
2023-03-14T08:58:39.179Z,2.58
2023-03-14T09:01:08.846Z,1.88
2023-03-14T09:03:36.918Z,1.85
2023-03-14T09:06:06.881Z,2.45
2023-03-14T09:08:35.549Z,2.10
2023-03-14T09:13:32.011Z,2.20
2023-03-14T09:15:59.707Z,3.08
2023-03-14T09:18:27.269Z,2.72
2023-03-14T09:20:56.042Z,2.67
2023-03-14T09:23:24.040Z,3.07
2023-03-14T09:25:59.741Z,1.80
2023-03-14T09:28:29.176Z,2.50
2023-03-14T09:30:57.839Z,1.40
2023-03-14T09:33:25.686Z,1.73
2023-03-14T09:35:53.414Z,2.10
2023-03-14T09:38:21.839Z,1.48
2023-03-14T09:40:50.179Z,1.63
2023-03-14T09:43:18.119Z,2.15
2023-03-14T09:45:48.782Z,1.52
2023-03-14T09:48:22.544Z,2.13
2023-03-14T09:50:56.134Z,1.88
2023-03-14T09:53:44.086Z,1.73
2023-03-14T09:56:22.177Z,2.35
2023-03-14T09:58:55.700Z,2.28
2023-03-14T10:01:32.136Z,2.50
2023-03-14T10:04:16.456Z,2.80
2023-03-14T10:06:44.654Z,3.05
2023-03-14T10:09:26.480Z,2.25
2023-03-14T10:12:08.887Z,2.83
2023-03-14T10:14:45.140Z,2.05
2023-03-14T10:17:14.671Z,2.33
2023-03-14T10:19:57.730Z,1.63
2023-03-14T10:22:33.117Z,2.55
2023-03-14T10:25:08.879Z,2.42
2023-03-14T10:27:37.379Z,2.10
2023-03-14T10:30:11.380Z,1.83
2023-03-14T10:32:43.121Z,2.22
2023-03-14T10:35:16.913Z,2.35
2023-03-14T10:38:02.465Z,2.67
2023-03-14T10:40:38.894Z,2.22
2023-03-14T10:43:14.440Z,1.70
2023-03-14T10:45:44.828Z,2.60
2023-03-14T10:48:18.075Z,1.65
2023-03-14T10:51:19.268Z,2.67
2023-03-14T10:54:01.172Z,3.25
2023-03-14T10:56:35.803Z,2.22
2023-03-14T10:59:05.396Z,2.95
2023-03-14T11:01:47.317Z,2.10
2023-03-14T11:04:36.976Z,1.75
2023-03-14T11:07:17.212Z,1.50
2023-03-14T11:10:00.646Z,1.45
2023-03-14T11:12:28.141Z,1.38
2023-03-14T11:15:05.288Z,1.23
2023-03-14T11:17:51.114Z,1.20
2023-03-14T11:20:47.976Z,1.70
2023-03-14T11:23:22.694Z,1.30
2023-03-14T11:26:07.222Z,1.10
2023-03-14T11:28:39.250Z,1.35
2023-03-14T11:31:25.625Z,1.40
2023-03-14T11:34:22.492Z,1.90
2023-03-14T11:37:04.751Z,1.73
2023-03-14T11:39:45.865Z,0.70
2023-03-14T11:42:18.054Z,1.00
2023-03-14T11:44:49.207Z,0.82
2023-03-14T11:47:31.505Z,0.80
2023-03-14T11:50:14.010Z,0.88
2023-03-14T11:52:57.700Z,0.82
2023-03-14T11:55:30.484Z,0.95
2023-03-14T11:58:15.284Z,1.33
2023-03-14T12:00:44.013Z,1.33
2023-03-14T12:03:17.984Z,0.88
2023-03-14T12:06:23.086Z,1.25
2023-03-14T12:09:02.803Z,0.93
2023-03-14T12:11:39.469Z,0.50
2023-03-14T12:14:28.745Z,1.60
2023-03-14T12:17:21.424Z,0.77
2023-03-14T12:20:01.358Z,0.95
2023-03-14T12:22:36.873Z,1.08
2023-03-14T12:25:23.835Z,1.45
2023-03-14T12:27:57.796Z,0.35
2023-03-14T12:30:36.072Z,1.50
2023-03-14T12:33:18.725Z,1.20
2023-03-14T12:35:51.819Z,0.70
2023-03-14T12:38:28.684Z,1.90
2023-03-14T12:41:15.116Z,1.48
2023-03-14T12:43:43.169Z,0.82
2023-03-14T12:46:11.125Z,0.68
2023-03-14T12:48:40.575Z,0.52
2023-03-14T12:51:19.361Z,1.25
2023-03-14T12:54:07.337Z,0.88
2023-03-14T12:57:02.355Z,1.15
2023-03-14T12:59:31.766Z,0.43
2023-03-14T13:02:07.231Z,0.85
2023-03-14T13:04:43.884Z,0.68
2023-03-14T13:07:56.586Z,0.80
2023-03-14T13:10:36.903Z,0.40
2023-03-14T13:13:24.313Z,0.60
2023-03-14T13:16:01.387Z,2.63
2023-03-14T13:18:41.096Z,0.52
2023-03-14T13:21:24.836Z,0.60
2023-03-14T13:24:19.536Z,6.78
2023-03-14T13:26:47.294Z,1.67
2023-03-14T13:29:18.898Z,0.70
2023-03-14T13:31:48.756Z,0.80
2023-03-14T13:34:16.937Z,0.75
2023-03-14T13:36:45.019Z,0.60
2023-03-14T13:39:20.648Z,0.85
2023-03-14T13:41:49.576Z,1.13
2023-03-14T13:44:39.582Z,2.03
2023-03-14T13:47:17.659Z,0.70
2023-03-14T13:49:46.245Z,0.60
2023-03-14T13:52:42.986Z,0.52
2023-03-14T13:55:18.986Z,1.00
2023-03-14T13:57:55.749Z,0.70
2023-03-14T14:00:28.507Z,0.98
2023-03-14T14:02:58.323Z,0.80
2023-03-14T14:05:30.816Z,0.77
2023-03-14T14:07:58.496Z,0.60
2023-03-14T14:10:30.024Z,0.60
2023-03-14T14:13:04.196Z,0.77
2023-03-14T14:15:35.667Z,1.52
2023-03-14T14:18:07.226Z,0.85
2023-03-14T14:20:45.341Z,0.90
2023-03-14T14:23:18.012Z,0.47
2023-03-14T14:25:47.051Z,0.93
2023-03-14T14:28:33.977Z,0.45
2023-03-14T14:31:16.776Z,0.77
2023-03-14T14:34:02.784Z,0.40
2023-03-14T14:36:38.929Z,0.60
2023-03-14T14:39:25.684Z,0.32
2023-03-14T14:41:54.127Z,1.08
2023-03-14T14:44:43.353Z,0.60
2023-03-14T14:47:14.988Z,0.88
2023-03-14T14:49:43.166Z,0.68
2023-03-14T14:52:41.587Z,0.30
2023-03-14T14:55:20.416Z,0.70
2023-03-14T14:57:54.379Z,0.93
2023-03-14T15:00:27.128Z,0.70
2023-03-14T15:03:01.138Z,0.68
2023-03-14T15:05:31.907Z,1.02
2023-03-14T15:07:59.611Z,0.60
2023-03-14T15:10:30.280Z,0.65
2023-03-14T15:12:57.935Z,0.52
2023-03-14T15:15:25.453Z,1.02
2023-03-14T15:17:53.087Z,0.90
2023-03-14T15:20:21.663Z,0.88
2023-03-14T15:22:49.206Z,0.40
2023-03-14T15:25:37.337Z,0.90
2023-03-14T15:28:06.541Z,0.60
2023-03-14T15:30:34.098Z,0.40
2023-03-14T15:33:01.658Z,0.60
2023-03-14T15:35:29.378Z,0.60
2023-03-14T15:37:56.992Z,1.20
2023-03-14T15:40:26.033Z,1.67
2023-03-14T15:42:56.738Z,1.80
2023-03-14T15:45:24.342Z,1.77
2023-03-14T15:47:51.943Z,1.27
2023-03-14T15:50:20.155Z,1.15
2023-03-14T15:52:48.049Z,0.85
2023-03-14T15:55:15.833Z,0.40
2023-03-14T15:57:45.417Z,0.60
2023-03-14T16:00:15.417Z,0.43
2023-03-14T16:02:43.360Z,0.55
2023-03-14T16:05:11.792Z,0.30
2023-03-14T16:07:40.308Z,0.45
2023-03-14T16:10:12.319Z,0.30
2023-03-14T16:12:40.521Z,0.50
2023-03-14T16:15:10.015Z,1.17
2023-03-14T16:17:38.977Z,0.38
2023-03-14T16:20:06.865Z,0.50
2023-03-14T16:22:37.044Z,0.85
2023-03-14T16:25:06.771Z,0.50
2023-03-14T16:27:34.367Z,1.30
2023-03-14T16:30:01.994Z,1.35
2023-03-14T16:32:29.744Z,1.20
2023-03-14T16:34:58.370Z,1.30
2023-03-14T16:37:27.542Z,1.30
2023-03-14T16:40:11.595Z,0.77
2023-03-14T16:45:30.485Z,1.25
2023-03-14T16:47:59.724Z,0.93
2023-03-14T16:50:27.312Z,1.05
2023-03-14T16:52:55.460Z,0.22
2023-03-14T16:55:23.247Z,0.30
2023-03-14T16:57:50.849Z,0.52
2023-03-14T17:00:19.046Z,0.45
2023-03-14T17:02:46.668Z,0.52
2023-03-14T17:05:14.430Z,0.20
2023-03-14T17:07:42.659Z,0.45
2023-03-14T17:10:11.583Z,0.90
2023-03-14T17:12:39.112Z,1.00
2023-03-14T17:15:07.290Z,0.73
2023-03-14T17:17:34.913Z,0.50
2023-03-14T17:20:03.685Z,0.98
2023-03-14T17:22:32.891Z,1.08
2023-03-14T17:25:01.497Z,0.68
2023-03-14T17:27:29.671Z,0.63
2023-03-14T17:30:00.280Z,0.75
2023-03-14T17:32:30.418Z,0.60
2023-03-14T17:34:58.085Z,0.52
2023-03-14T17:37:25.808Z,0.60
2023-03-14T17:39:56.947Z,0.52
2023-03-14T17:42:24.502Z,0.30
2023-03-14T17:44:56.546Z,0.50
2023-03-14T17:47:25.979Z,0.60
2023-03-14T17:49:53.617Z,1.00
2023-03-14T17:52:21.280Z,1.38
2023-03-14T17:54:48.780Z,1.42
2023-03-14T17:57:16.531Z,1.58
2023-03-14T17:59:44.417Z,1.70
2023-03-14T18:02:12.116Z,1.60
2023-03-14T18:04:40.020Z,1.52
2023-03-14T18:07:08.720Z,1.40
2023-03-14T18:09:36.634Z,1.85
2023-03-14T18:12:07.998Z,1.40
2023-03-14T18:14:37.419Z,1.20
2023-03-14T18:17:05.976Z,1.60
2023-03-14T18:19:33.725Z,1.20
2023-03-14T18:22:01.350Z,1.15
2023-03-14T18:24:29.195Z,1.58
2023-03-14T18:26:56.881Z,1.38
2023-03-14T18:29:24.597Z,0.85
2023-03-14T18:31:52.467Z,0.93
2023-03-14T18:34:20.453Z,0.90
2023-03-14T18:36:48.413Z,0.80
2023-03-14T18:39:16.117Z,1.48
2023-03-14T18:41:44.016Z,1.27
2023-03-14T18:44:11.778Z,1.40
2023-03-14T18:46:39.640Z,1.15
2023-03-14T18:49:07.833Z,1.50
2023-03-14T18:51:35.783Z,1.23
2023-03-14T18:54:10.084Z,1.58
2023-03-14T18:56:41.220Z,2.10
2023-03-14T18:59:10.483Z,1.55
2023-03-14T19:01:50.367Z,1.70
2023-03-14T19:04:18.750Z,2.35
2023-03-14T19:06:47.033Z,2.72
2023-03-14T19:09:15.930Z,1.88
2023-03-14T19:11:46.494Z,1.55
2023-03-14T19:14:16.097Z,1.50
2023-03-14T19:16:50.583Z,1.52
2023-03-14T19:19:21.151Z,2.33
2023-03-14T19:21:49.069Z,1.67
2023-03-14T19:24:22.573Z,1.30
2023-03-14T19:26:54.855Z,1.30
2023-03-14T19:29:28.490Z,1.15
2023-03-14T19:31:58.460Z,2.08
2023-03-14T19:34:30.222Z,1.83
2023-03-14T19:36:58.661Z,1.70
2023-03-14T19:39:28.868Z,1.52
2023-03-14T19:41:59.239Z,1.25
2023-03-14T19:44:28.539Z,1.10
2023-03-14T19:46:57.535Z,1.40
2023-03-14T19:49:26.659Z,1.17
2023-03-14T19:51:58.753Z,1.13
2023-03-14T19:54:28.945Z,1.00
2023-03-14T19:57:03.910Z,1.00
2023-03-14T19:59:32.471Z,1.65
2023-03-14T20:02:00.012Z,1.50
2023-03-14T20:04:31.447Z,2.40
2023-03-14T20:07:04.765Z,2.00
2023-03-14T20:09:32.443Z,1.45
2023-03-14T20:12:01.353Z,1.98
2023-03-14T20:14:29.196Z,2.10
2023-03-14T20:16:57.045Z,3.00
2023-03-14T20:19:25.083Z,1.90
2023-03-14T20:21:53.083Z,2.20
2023-03-14T20:24:21.850Z,1.88
2023-03-14T20:26:49.609Z,2.33
2023-03-14T20:29:17.320Z,2.10
2023-03-14T20:31:45.125Z,1.45
2023-03-14T20:34:16.019Z,1.00
2023-03-14T20:36:45.021Z,0.80
2023-03-14T20:39:17.170Z,0.60
2023-03-14T20:41:45.444Z,0.70
2023-03-14T20:44:13.630Z,0.47
2023-03-14T20:46:41.909Z,0.68
2023-03-14T20:49:10.119Z,0.85
2023-03-14T20:51:41.472Z,1.00
2023-03-14T20:54:14.159Z,0.75
2023-03-14T20:56:42.436Z,1.40
2023-03-14T20:59:10.332Z,1.38
2023-03-14T21:01:37.926Z,1.92
2023-03-14T21:04:05.785Z,1.17
2023-03-14T21:06:33.767Z,1.67
2023-03-14T21:09:05.612Z,1.25
2023-03-14T21:11:37.310Z,1.60
2023-03-14T21:14:05.021Z,2.47
2023-03-14T21:16:33.119Z,4.20
2023-03-14T21:19:01.544Z,4.15
2023-03-14T21:21:32.745Z,3.70
2023-03-14T21:24:02.487Z,2.40
2023-03-14T21:26:31.942Z,3.88
2023-03-14T21:29:02.987Z,1.73
2023-03-14T21:31:31.513Z,1.10
2023-03-14T21:33:59.822Z,0.85
2023-03-14T21:36:31.976Z,1.00
2023-03-14T21:39:01.724Z,0.90
2023-03-14T21:43:59.824Z,1.17
2023-03-14T21:46:28.660Z,1.48
2023-03-14T21:49:00.144Z,1.40
2023-03-14T21:51:31.537Z,1.33
2023-03-14T21:53:59.688Z,1.80
2023-03-14T21:56:30.212Z,2.60
2023-03-14T21:59:00.076Z,2.80
2023-03-14T22:01:32.127Z,2.30
2023-03-14T22:04:00.443Z,2.75
2023-03-14T22:06:29.134Z,2.50
2023-03-14T22:08:57.023Z,3.05
2023-03-14T22:11:31.304Z,2.90
2023-03-14T22:13:59.116Z,4.40
2023-03-14T22:16:36.149Z,3.22
2023-03-14T22:19:07.015Z,3.50
2023-03-14T22:21:42.879Z,4.80
2023-03-14T22:24:10.771Z,4.50
2023-03-14T22:26:45.105Z,4.30
2023-03-14T22:29:13.221Z,3.58
2023-03-14T22:31:44.063Z,3.63
2023-03-14T22:34:12.624Z,4.60
2023-03-14T22:36:41.212Z,3.40
2023-03-14T22:39:21.832Z,4.03
2023-03-14T22:41:57.021Z,3.78
2023-03-14T22:44:24.953Z,2.72
2023-03-14T22:46:55.632Z,3.78
2023-03-14T22:49:23.340Z,5.22
2023-03-14T22:51:59.981Z,5.78
2023-03-14T22:54:30.146Z,6.47
2023-03-14T22:57:00.611Z,5.53
2023-03-14T22:59:28.607Z,4.82
2023-03-14T23:01:56.162Z,5.03
2023-03-14T23:04:27.001Z,4.68
2023-03-14T23:06:54.605Z,4.38
2023-03-14T23:09:25.241Z,4.20
2023-03-14T23:11:53.713Z,4.80
2023-03-14T23:14:23.179Z,4.65
2023-03-14T23:16:51.492Z,4.20
2023-03-14T23:19:25.844Z,4.00
2023-03-14T23:22:02.113Z,5.07
2023-03-14T23:24:40.073Z,5.25
2023-03-14T23:27:07.637Z,5.65
2023-03-14T23:29:35.278Z,5.03
2023-03-14T23:32:02.995Z,4.75
2023-03-14T23:34:30.508Z,4.85
2023-03-14T23:36:58.163Z,5.80
2023-03-14T23:39:25.788Z,5.20
2023-03-14T23:41:53.434Z,4.90
2023-03-14T23:44:23.073Z,5.43
2023-03-14T23:46:51.637Z,5.80
2023-03-14T23:49:22.183Z,5.72
2023-03-14T23:51:49.825Z,6.20
2023-03-14T23:54:17.404Z,6.15
2023-03-14T23:56:45.166Z,6.22
2023-03-14T23:59:13.101Z,5.32
